sensor_id;sensor_type;location;lat;lon;timestamp;pressure;altitude;pressure_sealevel;temperature;humidity
5609;BME280;2826;51.354;9.588;2023-04-30T00:00:25;98718.41;;;7.87;82.73
5609;BME280;2826;51.354;9.588;2023-04-30T00:02:51;98723.50;;;7.90;82.80
5609;BME280;2826;51.354;9.588;2023-04-30T00:05:18;98721.72;;;7.94;82.80
5609;BME280;2826;51.354;9.588;2023-04-30T00:07:45;98724.22;;;7.98;83.16
5609;BME280;2826;51.354;9.588;2023-04-30T00:10:12;98725.91;;;8.00;82.94
5609;BME280;2826;51.354;9.588;2023-04-30T00:12:40;98728.50;;;8.00;82.97
5609;BME280;2826;51.354;9.588;2023-04-30T00:15:07;98736.22;;;8.00;82.87
5609;BME280;2826;51.354;9.588;2023-04-30T00:17:34;98733.69;;;7.98;82.97
5609;BME280;2826;51.354;9.588;2023-04-30T00:20:01;98736.31;;;7.96;83.08
5609;BME280;2826;51.354;9.588;2023-04-30T00:22:27;98733.75;;;7.95;82.85
5609;BME280;2826;51.354;9.588;2023-04-30T00:24:54;98728.69;;;7.90;83.23
5609;BME280;2826;51.354;9.588;2023-04-30T00:27:20;98721.88;;;7.86;83.05
5609;BME280;2826;51.354;9.588;2023-04-30T00:29:49;98730.47;;;7.87;83.44
5609;BME280;2826;51.354;9.588;2023-04-30T00:32:15;98730.50;;;7.85;83.60
5609;BME280;2826;51.354;9.588;2023-04-30T00:34:42;98739.19;;;7.81;83.62
5609;BME280;2826;51.354;9.588;2023-04-30T00:37:08;98740.91;;;7.80;83.43
5609;BME280;2826;51.354;9.588;2023-04-30T00:39:35;98740.06;;;7.80;83.32
5609;BME280;2826;51.354;9.588;2023-04-30T00:42:01;98739.28;;;7.76;83.64
5609;BME280;2826;51.354;9.588;2023-04-30T00:44:28;98734.22;;;7.70;83.78
5609;BME280;2826;51.354;9.588;2023-04-30T00:46:56;98748.81;;;7.71;83.83
5609;BME280;2826;51.354;9.588;2023-04-30T00:49:22;98740.28;;;7.67;83.47
5609;BME280;2826;51.354;9.588;2023-04-30T00:51:49;98742.13;;;7.61;83.51
5609;BME280;2826;51.354;9.588;2023-04-30T00:54:16;98737.97;;;7.53;83.77
5609;BME280;2826;51.354;9.588;2023-04-30T00:56:45;98740.63;;;7.50;83.77
5609;BME280;2826;51.354;9.588;2023-04-30T00:59:12;98692.22;;;7.13;83.77
5609;BME280;2826;51.354;9.588;2023-04-30T01:01:39;98745.03;;;7.43;83.90
5609;BME280;2826;51.354;9.588;2023-04-30T01:04:08;98745.06;;;7.42;84.04
5609;BME280;2826;51.354;9.588;2023-04-30T01:06:35;98750.19;;;7.43;83.92
5609;BME280;2826;51.354;9.588;2023-04-30T01:09:02;98745.00;;;7.45;84.05
5609;BME280;2826;51.354;9.588;2023-04-30T01:11:38;98746.75;;;7.43;83.64
5609;BME280;2826;51.354;9.588;2023-04-30T01:14:12;98745.97;;;7.39;83.76
5609;BME280;2826;51.354;9.588;2023-04-30T01:16:59;98755.53;;;7.32;84.01
5609;BME280;2826;51.354;9.588;2023-04-30T01:19:35;98751.22;;;7.33;83.89
5609;BME280;2826;51.354;9.588;2023-04-30T01:22:05;98754.69;;;7.32;83.91
5609;BME280;2826;51.354;9.588;2023-04-30T01:25:00;98757.25;;;7.32;84.05
5609;BME280;2826;51.354;9.588;2023-04-30T01:27:55;98764.94;;;7.35;84.32
5609;BME280;2826;51.354;9.588;2023-04-30T01:30:29;98760.69;;;7.32;84.21
5609;BME280;2826;51.354;9.588;2023-04-30T01:33:21;98758.13;;;7.32;84.37
5609;BME280;2826;51.354;9.588;2023-04-30T01:36:01;98756.44;;;7.30;84.17
5609;BME280;2826;51.354;9.588;2023-04-30T01:38:44;98760.75;;;7.29;84.23
5609;BME280;2826;51.354;9.588;2023-04-30T01:41:19;98754.78;;;7.27;84.17
5609;BME280;2826;51.354;9.588;2023-04-30T01:43:57;98761.66;;;7.25;84.24
5609;BME280;2826;51.354;9.588;2023-04-30T01:46:29;98757.38;;;7.26;84.26
5609;BME280;2826;51.354;9.588;2023-04-30T01:49:02;98759.97;;;7.24;84.50
5609;BME280;2826;51.354;9.588;2023-04-30T01:51:38;98757.44;;;7.21;84.43
5609;BME280;2826;51.354;9.588;2023-04-30T01:54:14;98756.63;;;7.19;84.67
5609;BME280;2826;51.354;9.588;2023-04-30T01:56:46;98763.47;;;7.20;84.73
5609;BME280;2826;51.354;9.588;2023-04-30T01:59:16;98760.91;;;7.20;84.54
5609;BME280;2826;51.354;9.588;2023-04-30T02:01:44;98761.78;;;7.19;84.39
5609;BME280;2826;51.354;9.588;2023-04-30T02:04:10;98766.09;;;7.17;84.39
5609;BME280;2826;51.354;9.588;2023-04-30T02:06:37;98765.28;;;7.15;84.58
5609;BME280;2826;51.354;9.588;2023-04-30T02:09:05;98766.16;;;7.14;84.62
5609;BME280;2826;51.354;9.588;2023-04-30T02:11:32;98767.00;;;7.13;84.71
5609;BME280;2826;51.354;9.588;2023-04-30T02:13:58;98770.47;;;7.12;84.95
5609;BME280;2826;51.354;9.588;2023-04-30T02:16:26;98768.78;;;7.11;84.96
5609;BME280;2826;51.354;9.588;2023-04-30T02:18:53;98772.19;;;7.11;84.70
5609;BME280;2826;51.354;9.588;2023-04-30T02:21:20;98765.34;;;7.09;84.42
5609;BME280;2826;51.354;9.588;2023-04-30T02:23:46;98762.88;;;7.04;84.72
5609;BME280;2826;51.354;9.588;2023-04-30T02:26:13;98763.75;;;7.03;84.86
5609;BME280;2826;51.354;9.588;2023-04-30T02:28:40;98768.03;;;7.02;84.71
5609;BME280;2826;51.354;9.588;2023-04-30T02:31:06;98777.56;;;6.99;84.69
5609;BME280;2826;51.354;9.588;2023-04-30T02:33:34;98769.91;;;6.92;84.93
5609;BME280;2826;51.354;9.588;2023-04-30T02:36:01;98775.06;;;6.91;84.76
5609;BME280;2826;51.354;9.588;2023-04-30T02:38:28;98774.31;;;6.86;84.81
5609;BME280;2826;51.354;9.588;2023-04-30T02:40:54;98766.63;;;6.83;84.95
5609;BME280;2826;51.354;9.588;2023-04-30T02:43:21;98764.13;;;6.76;84.71
5609;BME280;2826;51.354;9.588;2023-04-30T02:45:48;98763.31;;;6.74;84.61
5609;BME280;2826;51.354;9.588;2023-04-30T02:48:14;98771.19;;;6.63;84.47
5609;BME280;2826;51.354;9.588;2023-04-30T02:50:42;98778.16;;;6.58;84.40
5609;BME280;2826;51.354;9.588;2023-04-30T02:53:09;98783.34;;;6.53;84.71
5609;BME280;2826;51.354;9.588;2023-04-30T02:55:36;98775.63;;;6.53;84.72
5609;BME280;2826;51.354;9.588;2023-04-30T02:58:02;98778.22;;;6.52;84.90
5609;BME280;2826;51.354;9.588;2023-04-30T03:00:29;98786.84;;;6.48;84.95
5609;BME280;2826;51.354;9.588;2023-04-30T03:02:56;98780.13;;;6.37;84.95
5609;BME280;2826;51.354;9.588;2023-04-30T03:05:22;98784.38;;;6.38;85.61
5609;BME280;2826;51.354;9.588;2023-04-30T03:07:51;98792.06;;;6.43;85.53
5609;BME280;2826;51.354;9.588;2023-04-30T03:10:17;98796.25;;;6.50;85.93
5609;BME280;2826;51.354;9.588;2023-04-30T03:12:44;98789.28;;;6.59;85.86
5609;BME280;2826;51.354;9.588;2023-04-30T03:15:11;98793.47;;;6.69;85.77
5609;BME280;2826;51.354;9.588;2023-04-30T03:17:37;98795.94;;;6.75;85.92
5609;BME280;2826;51.354;9.588;2023-04-30T03:20:05;98807.81;;;6.86;85.64
5609;BME280;2826;51.354;9.588;2023-04-30T03:22:32;98787.22;;;6.84;85.80
5609;BME280;2826;51.354;9.588;2023-04-30T03:25:00;98760.78;;;6.71;85.49
5609;BME280;2826;51.354;9.588;2023-04-30T03:27:26;98802.31;;;7.11;85.72
5609;BME280;2826;51.354;9.588;2023-04-30T03:29:53;98808.22;;;7.19;85.68
5609;BME280;2826;51.354;9.588;2023-04-30T03:32:19;98800.38;;;7.24;85.62
5609;BME280;2826;51.354;9.588;2023-04-30T03:34:46;98799.44;;;7.28;85.54
5609;BME280;2826;51.354;9.588;2023-04-30T03:37:12;98802.91;;;7.27;85.73
5609;BME280;2826;51.354;9.588;2023-04-30T03:39:39;98798.56;;;7.29;85.80
5609;BME280;2826;51.354;9.588;2023-04-30T03:42:07;98802.00;;;7.29;85.94
5609;BME280;2826;51.354;9.588;2023-04-30T03:44:33;98803.69;;;7.32;85.80
5609;BME280;2826;51.354;9.588;2023-04-30T03:47:00;98801.09;;;7.34;85.48
5609;BME280;2826;51.354;9.588;2023-04-30T03:49:27;98809.72;;;7.31;85.65
5609;BME280;2826;51.354;9.588;2023-04-30T03:51:54;98808.03;;;7.30;85.69
5609;BME280;2826;51.354;9.588;2023-04-30T03:54:20;98808.84;;;7.34;86.26
5609;BME280;2826;51.354;9.588;2023-04-30T03:56:48;98808.78;;;7.38;85.91
5609;BME280;2826;51.354;9.588;2023-04-30T03:59:16;98812.91;;;7.47;85.69
5609;BME280;2826;51.354;9.588;2023-04-30T04:01:43;98808.53;;;7.52;85.98
5609;BME280;2826;51.354;9.588;2023-04-30T04:04:09;98815.38;;;7.53;86.01
5609;BME280;2826;51.354;9.588;2023-04-30T04:06:37;98812.72;;;7.58;85.65
5609;BME280;2826;51.354;9.588;2023-04-30T04:09:04;98819.56;;;7.62;85.47
5609;BME280;2826;51.354;9.588;2023-04-30T04:11:30;98819.53;;;7.64;85.46
5609;BME280;2826;51.354;9.588;2023-04-30T04:13:57;98813.50;;;7.63;85.43
5609;BME280;2826;51.354;9.588;2023-04-30T04:16:25;98819.53;;;7.64;85.45
5609;BME280;2826;51.354;9.588;2023-04-30T04:18:52;98814.25;;;7.70;85.49
5609;BME280;2826;51.354;9.588;2023-04-30T04:21:18;98821.09;;;7.71;85.52
5609;BME280;2826;51.354;9.588;2023-04-30T04:23:45;98821.09;;;7.72;85.47
5609;BME280;2826;51.354;9.588;2023-04-30T04:26:12;98824.50;;;7.75;85.29
5609;BME280;2826;51.354;9.588;2023-04-30T04:28:39;98826.19;;;7.77;84.90
5609;BME280;2826;51.354;9.588;2023-04-30T04:31:07;98823.59;;;7.77;84.93
5609;BME280;2826;51.354;9.588;2023-04-30T04:33:35;98827.00;;;7.78;84.61
5609;BME280;2826;51.354;9.588;2023-04-30T04:36:03;98825.34;;;7.74;84.60
5609;BME280;2826;51.354;9.588;2023-04-30T04:38:30;98829.72;;;7.71;84.52
5609;BME280;2826;51.354;9.588;2023-04-30T04:40:57;98830.56;;;7.72;84.62
5609;BME280;2826;51.354;9.588;2023-04-30T04:43:24;98825.44;;;7.70;84.64
5609;BME280;2826;51.354;9.588;2023-04-30T04:45:50;98822.75;;;7.75;84.53
5609;BME280;2826;51.354;9.588;2023-04-30T04:48:17;98823.56;;;7.79;84.38
5609;BME280;2826;51.354;9.588;2023-04-30T04:50:45;98829.56;;;7.81;84.08
5609;BME280;2826;51.354;9.588;2023-04-30T04:53:12;98826.91;;;7.86;84.05
5609;BME280;2826;51.354;9.588;2023-04-30T04:55:38;98824.31;;;7.86;83.95
5609;BME280;2826;51.354;9.588;2023-04-30T04:58:05;98827.72;;;7.86;83.82
5609;BME280;2826;51.354;9.588;2023-04-30T05:00:32;98828.56;;;7.90;83.61
5609;BME280;2826;51.354;9.588;2023-04-30T05:02:59;98836.38;;;7.85;83.64
5609;BME280;2826;51.354;9.588;2023-04-30T05:05:25;98834.66;;;7.84;83.15
5609;BME280;2826;51.354;9.588;2023-04-30T05:07:53;98831.91;;;7.95;83.33
5609;BME280;2826;51.354;9.588;2023-04-30T05:10:20;98839.63;;;7.96;82.96
5609;BME280;2826;51.354;9.588;2023-04-30T05:12:47;98830.06;;;8.00;82.69
5609;BME280;2826;51.354;9.588;2023-04-30T05:15:14;98836.94;;;8.01;82.39
5609;BME280;2826;51.354;9.588;2023-04-30T05:17:41;98843.03;;;7.97;81.89
5609;BME280;2826;51.354;9.588;2023-04-30T05:20:08;98845.63;;;7.97;82.02
5609;BME280;2826;51.354;9.588;2023-04-30T05:22:35;98846.50;;;7.96;82.22
5609;BME280;2826;51.354;9.588;2023-04-30T05:25:03;98855.06;;;7.98;82.09
5609;BME280;2826;51.354;9.588;2023-04-30T05:27:30;98848.16;;;8.00;81.73
5609;BME280;2826;51.354;9.588;2023-04-30T05:29:57;98849.94;;;7.96;81.60
5609;BME280;2826;51.354;9.588;2023-04-30T05:32:25;98852.56;;;7.95;81.72
5609;BME280;2826;51.354;9.588;2023-04-30T05:34:53;98799.53;;;7.75;81.39
5609;BME280;2826;51.354;9.588;2023-04-30T05:37:19;98853.97;;;8.11;80.91
5609;BME280;2826;51.354;9.588;2023-04-30T05:39:46;98779.16;;;7.60;80.37
5609;BME280;2826;51.354;9.588;2023-04-30T05:42:15;98758.56;;;7.56;80.07
5609;BME280;2826;51.354;9.588;2023-04-30T05:44:42;98705.63;;;7.34;80.08
5609;BME280;2826;51.354;9.588;2023-04-30T05:47:10;98684.47;;;7.13;79.95
5609;BME280;2826;51.354;9.588;2023-04-30T05:49:37;98867.16;;;8.43;79.59
5609;BME280;2826;51.354;9.588;2023-04-30T05:52:04;98782.81;;;7.96;79.56
5609;BME280;2826;51.354;9.588;2023-04-30T05:54:31;98655.94;;;7.22;79.09
5609;BME280;2826;51.354;9.588;2023-04-30T05:56:58;98857.50;;;8.52;79.16
5609;BME280;2826;51.354;9.588;2023-04-30T05:59:26;98623.47;;;7.12;78.03
5609;BME280;2826;51.354;9.588;2023-04-30T06:01:53;98780.78;;;8.13;77.63
5609;BME280;2826;51.354;9.588;2023-04-30T06:04:20;98707.50;;;7.72;76.96
5609;BME280;2826;51.354;9.588;2023-04-30T06:06:47;98643.66;;;7.38;76.97
5609;BME280;2826;51.354;9.588;2023-04-30T06:09:14;98783.91;;;8.27;77.55
5609;BME280;2826;51.354;9.588;2023-04-30T06:11:41;98868.06;;;8.85;77.25
5609;BME280;2826;51.354;9.588;2023-04-30T06:14:09;98678.91;;;7.82;76.67
5609;BME280;2826;51.354;9.588;2023-04-30T06:16:37;98868.53;;;9.04;76.39
5609;BME280;2826;51.354;9.588;2023-04-30T06:19:04;98868.28;;;9.15;75.68
5609;BME280;2826;51.354;9.588;2023-04-30T06:21:31;98840.69;;;9.15;74.71
5609;BME280;2826;51.354;9.588;2023-04-30T06:23:58;98751.34;;;8.62;74.59
5609;BME280;2826;51.354;9.588;2023-04-30T06:26:26;98670.53;;;8.13;74.60
5609;BME280;2826;51.354;9.588;2023-04-30T06:28:52;98855.75;;;9.36;74.39
5609;BME280;2826;51.354;9.588;2023-04-30T06:31:20;98760.56;;;8.74;74.34
5609;BME280;2826;51.354;9.588;2023-04-30T06:33:49;98633.59;;;8.09;75.13
5609;BME280;2826;51.354;9.588;2023-04-30T06:36:15;98779.00;;;8.97;74.04
5609;BME280;2826;51.354;9.588;2023-04-30T06:38:43;98646.06;;;8.30;73.96
5609;BME280;2826;51.354;9.588;2023-04-30T06:41:11;98769.78;;;9.21;73.57
5609;BME280;2826;51.354;9.588;2023-04-30T06:43:38;98814.22;;;9.75;72.22
5609;BME280;2826;51.354;9.588;2023-04-30T06:46:05;98711.06;;;9.25;71.81
5609;BME280;2826;51.354;9.588;2023-04-30T06:48:32;98695.84;;;9.12;71.37
5609;BME280;2826;51.354;9.588;2023-04-30T06:51:00;98611.34;;;8.78;70.01
5609;BME280;2826;51.354;9.588;2023-04-30T06:53:27;98675.41;;;9.03;68.40
5609;BME280;2826;51.354;9.588;2023-04-30T06:55:55;98772.00;;;9.72;69.33
5609;BME280;2826;51.354;9.588;2023-04-30T06:58:22;98849.97;;;10.27;68.26
5609;BME280;2826;51.354;9.588;2023-04-30T07:00:48;98599.25;;;8.80;67.64
5609;BME280;2826;51.354;9.588;2023-04-30T07:03:16;98690.34;;;9.58;67.86
5609;BME280;2826;51.354;9.588;2023-04-30T07:05:42;98848.28;;;10.58;66.61
5609;BME280;2826;51.354;9.588;2023-04-30T07:08:11;98677.41;;;9.58;66.29
5609;BME280;2826;51.354;9.588;2023-04-30T07:10:41;98800.91;;;10.53;65.28
5609;BME280;2826;51.354;9.588;2023-04-30T07:13:08;98724.81;;;10.24;65.16
5609;BME280;2826;51.354;9.588;2023-04-30T07:15:35;98727.34;;;10.25;65.16
5609;BME280;2826;51.354;9.588;2023-04-30T07:18:06;98842.31;;;10.86;63.65
5609;BME280;2826;51.354;9.588;2023-04-30T07:20:34;98823.94;;;10.92;64.44
5609;BME280;2826;51.354;9.588;2023-04-30T07:23:02;98728.72;;;10.37;63.59
5609;BME280;2826;51.354;9.588;2023-04-30T07:25:30;98818.09;;;11.14;64.54
5609;BME280;2826;51.354;9.588;2023-04-30T07:27:57;98655.06;;;10.16;64.68
5609;BME280;2826;51.354;9.588;2023-04-30T07:30:24;98864.47;;;11.54;64.85
5609;BME280;2826;51.354;9.588;2023-04-30T07:32:53;98648.63;;;10.29;65.94
5609;BME280;2826;51.354;9.588;2023-04-30T07:35:20;98831.03;;;11.43;65.84
5609;BME280;2826;51.354;9.588;2023-04-30T07:37:46;98802.53;;;11.14;66.27
5609;BME280;2826;51.354;9.588;2023-04-30T07:40:14;98785.34;;;11.10;65.79
5609;BME280;2826;51.354;9.588;2023-04-30T07:42:42;98646.78;;;10.33;65.07
5609;BME280;2826;51.354;9.588;2023-04-30T07:45:09;98825.59;;;11.50;64.93
5609;BME280;2826;51.354;9.588;2023-04-30T07:47:38;98634.81;;;10.29;64.10
5609;BME280;2826;51.354;9.588;2023-04-30T07:50:06;98814.72;;;11.39;65.31
5609;BME280;2826;51.354;9.588;2023-04-30T07:52:33;98817.53;;;11.58;63.46
5609;BME280;2826;51.354;9.588;2023-04-30T07:55:00;98700.09;;;10.97;61.94
5609;BME280;2826;51.354;9.588;2023-04-30T07:57:27;98809.75;;;11.58;62.78
5609;BME280;2826;51.354;9.588;2023-04-30T07:59:56;98732.03;;;11.27;63.63
5609;BME280;2826;51.354;9.588;2023-04-30T08:02:23;98800.97;;;11.88;61.88
5609;BME280;2826;51.354;9.588;2023-04-30T08:04:54;98731.72;;;11.36;61.00
5609;BME280;2826;51.354;9.588;2023-04-30T08:07:21;98756.00;;;11.35;59.82
5609;BME280;2826;51.354;9.588;2023-04-30T08:09:56;98638.53;;;10.76;60.40
5609;BME280;2826;51.354;9.588;2023-04-30T08:12:27;98763.16;;;11.79;60.46
5609;BME280;2826;51.354;9.588;2023-04-30T08:15:01;98663.84;;;11.21;60.26
5609;BME280;2826;51.354;9.588;2023-04-30T08:17:30;98763.88;;;11.83;60.32
5609;BME280;2826;51.354;9.588;2023-04-30T08:19:58;98656.53;;;11.07;60.34
5609;BME280;2826;51.354;9.588;2023-04-30T08:22:25;98657.31;;;11.09;60.72
5609;BME280;2826;51.354;9.588;2023-04-30T08:24:52;98680.81;;;11.32;59.59
5609;BME280;2826;51.354;9.588;2023-04-30T08:27:20;98646.16;;;11.33;60.29
5609;BME280;2826;51.354;9.588;2023-04-30T08:29:48;98679.78;;;11.61;59.16
5609;BME280;2826;51.354;9.588;2023-04-30T08:32:17;98809.88;;;12.56;58.74
5609;BME280;2826;51.354;9.588;2023-04-30T08:34:44;98823.81;;;12.99;59.65
5609;BME280;2826;51.354;9.588;2023-04-30T08:37:11;98835.59;;;13.10;56.92
5609;BME280;2826;51.354;9.588;2023-04-30T08:39:38;98875.25;;;13.16;55.51
5609;BME280;2826;51.354;9.588;2023-04-30T08:42:08;98742.25;;;12.32;56.44
5609;BME280;2826;51.354;9.588;2023-04-30T08:44:36;98847.03;;;13.05;54.53
5609;BME280;2826;51.354;9.588;2023-04-30T08:47:05;98854.22;;;13.21;56.54
5609;BME280;2826;51.354;9.588;2023-04-30T08:49:34;98865.66;;;13.39;56.67
5609;BME280;2826;51.354;9.588;2023-04-30T08:52:04;98811.06;;;13.15;54.96
5609;BME280;2826;51.354;9.588;2023-04-30T08:54:32;98826.28;;;13.47;54.19
5609;BME280;2826;51.354;9.588;2023-04-30T08:57:01;98635.03;;;12.47;52.69
5609;BME280;2826;51.354;9.588;2023-04-30T08:59:27;98810.06;;;13.63;54.12
5609;BME280;2826;51.354;9.588;2023-04-30T09:01:54;98777.34;;;13.55;53.43
5609;BME280;2826;51.354;9.588;2023-04-30T09:04:21;98804.69;;;13.87;53.55
5609;BME280;2826;51.354;9.588;2023-04-30T09:06:51;98777.53;;;13.92;52.68
5609;BME280;2826;51.354;9.588;2023-04-30T09:09:18;98723.03;;;13.67;53.50
5609;BME280;2826;51.354;9.588;2023-04-30T09:11:45;98759.41;;;13.89;50.99
5609;BME280;2826;51.354;9.588;2023-04-30T09:14:23;98864.94;;;14.60;51.13
5609;BME280;2826;51.354;9.588;2023-04-30T09:16:51;98692.91;;;13.59;50.82
5609;BME280;2826;51.354;9.588;2023-04-30T09:19:22;98848.19;;;14.66;49.21
5609;BME280;2826;51.354;9.588;2023-04-30T09:21:51;98778.72;;;14.25;50.30
5609;BME280;2826;51.354;9.588;2023-04-30T09:24:17;98652.22;;;13.57;50.19
5609;BME280;2826;51.354;9.588;2023-04-30T09:26:45;98715.03;;;14.10;51.28
5609;BME280;2826;51.354;9.588;2023-04-30T09:29:13;98806.13;;;14.92;49.74
5609;BME280;2826;51.354;9.588;2023-04-30T09:31:43;98737.38;;;14.54;49.09
5609;BME280;2826;51.354;9.588;2023-04-30T09:34:11;98847.56;;;15.36;48.63
5609;BME280;2826;51.354;9.588;2023-04-30T09:36:52;98730.25;;;14.77;48.27
5609;BME280;2826;51.354;9.588;2023-04-30T09:39:20;98842.69;;;15.65;48.48
5609;BME280;2826;51.354;9.588;2023-04-30T09:41:49;98811.63;;;15.59;49.11
5609;BME280;2826;51.354;9.588;2023-04-30T09:44:25;98760.72;;;15.49;48.43
5609;BME280;2826;51.354;9.588;2023-04-30T09:46:52;98699.41;;;15.21;46.66
5609;BME280;2826;51.354;9.588;2023-04-30T09:49:19;98797.44;;;15.99;46.11
5609;BME280;2826;51.354;9.588;2023-04-30T09:51:54;98689.34;;;15.31;44.09
5609;BME280;2826;51.354;9.588;2023-04-30T09:54:23;98700.53;;;15.50;45.29
5609;BME280;2826;51.354;9.588;2023-04-30T09:56:52;98633.97;;;15.24;46.01
5609;BME280;2826;51.354;9.588;2023-04-30T09:59:21;98681.16;;;15.54;45.83
5609;BME280;2826;51.354;9.588;2023-04-30T10:01:50;98751.66;;;16.08;43.51
5609;BME280;2826;51.354;9.588;2023-04-30T10:04:18;98814.47;;;16.57;44.33
5609;BME280;2826;51.354;9.588;2023-04-30T10:06:46;98748.66;;;16.31;44.59
5609;BME280;2826;51.354;9.588;2023-04-30T10:09:18;98829.31;;;16.73;44.61
5609;BME280;2826;51.354;9.588;2023-04-30T10:11:45;98823.25;;;16.89;45.17
5609;BME280;2826;51.354;9.588;2023-04-30T10:14:13;98819.63;;;16.91;44.22
5609;BME280;2826;51.354;9.588;2023-04-30T10:16:43;98803.81;;;16.77;43.57
5609;BME280;2826;51.354;9.588;2023-04-30T10:19:14;98788.44;;;16.54;43.79
5609;BME280;2826;51.354;9.588;2023-04-30T10:21:45;98783.63;;;16.63;43.97
5609;BME280;2826;51.354;9.588;2023-04-30T10:24:13;98786.09;;;16.82;45.40
5609;BME280;2826;51.354;9.588;2023-04-30T10:26:42;98690.75;;;16.38;43.01
5609;BME280;2826;51.354;9.588;2023-04-30T10:29:11;98708.97;;;16.23;43.17
5609;BME280;2826;51.354;9.588;2023-04-30T10:31:38;98719.78;;;16.49;43.10
5609;BME280;2826;51.354;9.588;2023-04-30T10:34:16;98810.59;;;17.13;42.65
5609;BME280;2826;51.354;9.588;2023-04-30T10:36:46;98812.78;;;17.05;42.37
5609;BME280;2826;51.354;9.588;2023-04-30T10:39:17;98806.78;;;17.19;43.59
5609;BME280;2826;51.354;9.588;2023-04-30T10:41:46;98802.56;;;17.47;44.08
5609;BME280;2826;51.354;9.588;2023-04-30T10:44:14;98798.22;;;17.76;42.77
5609;BME280;2826;51.354;9.588;2023-04-30T10:46:41;98796.88;;;18.14;44.21
5609;BME280;2826;51.354;9.588;2023-04-30T10:49:07;98795.84;;;18.32;42.18
5609;BME280;2826;51.354;9.588;2023-04-30T10:51:45;98792.53;;;18.42;41.46
5609;BME280;2826;51.354;9.588;2023-04-30T10:54:15;98785.78;;;18.38;39.16
5609;BME280;2826;51.354;9.588;2023-04-30T10:56:44;98788.53;;;18.22;39.84
5609;BME280;2826;51.354;9.588;2023-04-30T10:59:12;98782.00;;;18.15;40.67
5609;BME280;2826;51.354;9.588;2023-04-30T11:01:55;98782.81;;;18.15;40.87
5609;BME280;2826;51.354;9.588;2023-04-30T11:04:22;98761.34;;;18.09;41.31
5609;BME280;2826;51.354;9.588;2023-04-30T11:06:55;98781.13;;;18.44;41.21
5609;BME280;2826;51.354;9.588;2023-04-30T11:09:34;98772.38;;;18.58;39.60
5609;BME280;2826;51.354;9.588;2023-04-30T11:12:03;98777.53;;;18.59;41.44
5609;BME280;2826;51.354;9.588;2023-04-30T11:14:32;98776.16;;;18.81;40.19
5609;BME280;2826;51.354;9.588;2023-04-30T11:16:59;98775.13;;;18.84;40.16
5609;BME280;2826;51.354;9.588;2023-04-30T11:19:27;98775.03;;;18.85;39.57
5609;BME280;2826;51.354;9.588;2023-04-30T11:22:20;98772.81;;;19.06;38.18
5609;BME280;2826;51.354;9.588;2023-04-30T11:24:52;98770.53;;;19.15;38.06
5609;BME280;2826;51.354;9.588;2023-04-30T11:27:19;98727.31;;;18.91;36.17
5609;BME280;2826;51.354;9.588;2023-04-30T11:29:48;98774.22;;;19.25;38.84
5609;BME280;2826;51.354;9.588;2023-04-30T11:32:17;98759.41;;;19.24;38.50
5609;BME280;2826;51.354;9.588;2023-04-30T11:34:43;98760.97;;;19.27;37.26
5609;BME280;2826;51.354;9.588;2023-04-30T11:37:11;98764.03;;;19.33;37.82
5609;BME280;2826;51.354;9.588;2023-04-30T11:39:39;98760.44;;;19.22;38.53
5609;BME280;2826;51.354;9.588;2023-04-30T11:42:07;98753.69;;;19.17;37.13
5609;BME280;2826;51.354;9.588;2023-04-30T11:44:34;98751.84;;;19.45;38.67
5609;BME280;2826;51.354;9.588;2023-04-30T11:47:04;98747.88;;;19.66;36.93
5609;BME280;2826;51.354;9.588;2023-04-30T11:49:31;98742.94;;;19.74;37.54
5609;BME280;2826;51.354;9.588;2023-04-30T11:51:58;98750.19;;;19.96;36.93
5609;BME280;2826;51.354;9.588;2023-04-30T11:54:25;98743.38;;;20.07;37.32
5609;BME280;2826;51.354;9.588;2023-04-30T11:56:52;98744.28;;;20.19;36.79
5609;BME280;2826;51.354;9.588;2023-04-30T11:59:19;98744.09;;;20.22;36.45
5609;BME280;2826;51.354;9.588;2023-04-30T12:01:45;98731.13;;;20.32;35.86
5609;BME280;2826;51.354;9.588;2023-04-30T12:04:14;98737.69;;;20.50;36.48
5609;BME280;2826;51.354;9.588;2023-04-30T12:06:40;98734.84;;;20.54;36.92
5609;BME280;2826;51.354;9.588;2023-04-30T12:09:07;98724.16;;;20.55;36.48
5609;BME280;2826;51.354;9.588;2023-04-30T12:11:37;98721.50;;;20.68;36.27
5609;BME280;2826;51.354;9.588;2023-04-30T12:14:05;98723.97;;;20.83;35.25
5609;BME280;2826;51.354;9.588;2023-04-30T12:16:40;98722.25;;;20.95;35.12
5609;BME280;2826;51.354;9.588;2023-04-30T12:19:07;98724.88;;;20.95;34.79
5609;BME280;2826;51.354;9.588;2023-04-30T12:21:35;98731.31;;;20.91;34.19
5609;BME280;2826;51.354;9.588;2023-04-30T12:24:03;98715.59;;;20.65;32.95
5609;BME280;2826;51.354;9.588;2023-04-30T12:26:36;98727.19;;;20.62;35.21
5609;BME280;2826;51.354;9.588;2023-04-30T12:29:04;98711.69;;;20.70;34.53
5609;BME280;2826;51.354;9.588;2023-04-30T12:31:31;98670.38;;;20.46;33.54
5609;BME280;2826;51.354;9.588;2023-04-30T12:34:02;98714.41;;;20.69;33.77
5609;BME280;2826;51.354;9.588;2023-04-30T12:36:30;98702.47;;;20.52;33.30
5609;BME280;2826;51.354;9.588;2023-04-30T12:39:16;98663.19;;;20.24;33.84
5609;BME280;2826;51.354;9.588;2023-04-30T12:41:44;98708.22;;;20.70;35.05
5609;BME280;2826;51.354;9.588;2023-04-30T12:44:15;98709.31;;;20.92;34.26
5609;BME280;2826;51.354;9.588;2023-04-30T12:46:43;98707.94;;;21.10;34.75
5609;BME280;2826;51.354;9.588;2023-04-30T12:49:10;98698.03;;;21.25;32.72
5609;BME280;2826;51.354;9.588;2023-04-30T12:51:38;98694.16;;;21.18;31.52
5609;BME280;2826;51.354;9.588;2023-04-30T12:54:07;98692.91;;;20.99;32.04
5609;BME280;2826;51.354;9.588;2023-04-30T12:56:35;98694.28;;;21.17;33.23
5609;BME280;2826;51.354;9.588;2023-04-30T12:59:14;98688.59;;;21.46;32.02
5609;BME280;2826;51.354;9.588;2023-04-30T13:01:44;98691.16;;;21.82;32.71
5609;BME280;2826;51.354;9.588;2023-04-30T13:04:11;98642.94;;;21.79;31.35
5609;BME280;2826;51.354;9.588;2023-04-30T13:06:37;98681.13;;;22.31;31.02
5609;BME280;2826;51.354;9.588;2023-04-30T13:09:05;98669.31;;;22.47;30.25
5609;BME280;2826;51.354;9.588;2023-04-30T13:11:32;98676.03;;;22.51;30.32
5609;BME280;2826;51.354;9.588;2023-04-30T13:13:59;98647.06;;;22.16;29.55
5609;BME280;2826;51.354;9.588;2023-04-30T13:16:26;98670.22;;;22.24;30.12
5609;BME280;2826;51.354;9.588;2023-04-30T13:18:52;98674.44;;;22.27;28.34
5609;BME280;2826;51.354;9.588;2023-04-30T13:21:19;98675.13;;;22.29;28.64
5609;BME280;2826;51.354;9.588;2023-04-30T13:23:46;98675.47;;;22.36;29.28
5609;BME280;2826;51.354;9.588;2023-04-30T13:26:13;98661.69;;;22.21;28.42
5609;BME280;2826;51.354;9.588;2023-04-30T13:28:40;98660.22;;;22.39;30.09
5609;BME280;2826;51.354;9.588;2023-04-30T13:31:09;98665.72;;;22.59;29.07
5609;BME280;2826;51.354;9.588;2023-04-30T13:33:35;98662.88;;;22.72;30.07